createdAt,value
2019-03-06T00:02:55.252Z,3.67
2019-03-06T00:07:57.316Z,3.57
2019-03-06T00:12:59.329Z,3.30
2019-03-06T00:18:01.443Z,3.30
2019-03-06T00:23:03.704Z,3.60
2019-03-06T00:28:05.852Z,3.43
2019-03-06T00:33:07.984Z,3.93
2019-03-06T00:38:10.062Z,3.40
2019-03-06T00:43:12.322Z,3.40
2019-03-06T00:48:14.409Z,3.90
2019-03-06T00:53:16.721Z,4.23
2019-03-06T00:58:18.742Z,3.93
2019-03-06T01:03:20.842Z,3.90
2019-03-06T01:08:23.185Z,4.23
2019-03-06T01:13:27.069Z,3.93
2019-03-06T01:18:29.295Z,4.20
2019-03-06T01:23:31.358Z,4.40
2019-03-06T01:28:33.389Z,4.47
2019-03-06T01:33:43.750Z,4.17
2019-03-06T01:39:05.437Z,4.33
2019-03-06T01:44:17.393Z,4.20
2019-03-06T01:49:19.456Z,4.23
2019-03-06T01:54:21.512Z,3.73
2019-03-06T01:59:23.600Z,3.90
2019-03-06T02:04:25.674Z,4.20
2019-03-06T02:09:28.543Z,3.50
2019-03-06T02:14:30.896Z,3.80
2019-03-06T02:19:33.130Z,3.70
2019-03-06T02:24:35.185Z,4.30
2019-03-06T02:29:37.316Z,4.03
2019-03-06T02:34:39.390Z,4.90
2019-03-06T02:39:41.444Z,4.17
2019-03-06T02:44:43.482Z,3.87
2019-03-06T02:49:45.547Z,3.83
2019-03-06T02:54:47.622Z,4.00
2019-03-06T03:00:00.578Z,4.73
2019-03-06T03:05:22.844Z,4.20
2019-03-06T03:10:24.927Z,4.40
2019-03-06T03:15:27.218Z,3.70
2019-03-06T03:20:29.261Z,4.30
2019-03-06T03:25:31.323Z,4.27
2019-03-06T03:30:33.410Z,4.90
2019-03-06T03:35:35.627Z,4.50
2019-03-06T03:40:37.763Z,4.30
2019-03-06T03:45:39.788Z,4.83
2019-03-06T03:50:42.234Z,4.57
2019-03-06T03:55:44.257Z,4.60
2019-03-06T04:00:46.424Z,5.70
2019-03-06T04:05:48.521Z,5.90
2019-03-06T04:10:50.654Z,5.33
2019-03-06T04:15:54.683Z,5.60
2019-03-06T04:20:58.708Z,6.60
2019-03-06T04:26:00.776Z,6.67
2019-03-06T04:31:02.855Z,7.43
2019-03-06T04:36:05.245Z,7.30
2019-03-06T04:41:07.325Z,7.60
2019-03-06T04:46:09.441Z,7.97
2019-03-06T04:51:13.103Z,8.93
2019-03-06T04:56:15.674Z,8.30
2019-03-06T05:01:17.686Z,8.57
2019-03-06T05:06:19.770Z,9.40
2019-03-06T05:11:21.805Z,9.60
2019-03-06T05:16:39.243Z,8.47
2019-03-06T05:21:41.292Z,9.23
2019-03-06T05:26:43.380Z,9.17
2019-03-06T05:32:22.395Z,9.93
2019-03-06T05:38:09.035Z,9.90
2019-03-06T05:43:11.121Z,9.57
2019-03-06T05:48:13.233Z,11.43
2019-03-06T05:53:17.226Z,11.27
2019-03-06T05:58:19.297Z,11.67
2019-03-06T06:03:21.334Z,10.40
2019-03-06T06:08:23.509Z,10.97
2019-03-06T06:13:25.594Z,11.53
2019-03-06T06:18:27.639Z,10.10
2019-03-06T06:23:42.364Z,11.10
2019-03-06T06:28:44.431Z,11.20
2019-03-06T06:33:46.465Z,10.40
2019-03-06T06:38:48.526Z,11.10
2019-03-06T06:43:50.645Z,11.40
2019-03-06T06:48:52.988Z,10.30
2019-03-06T06:54:00.493Z,10.20
2019-03-06T06:59:18.484Z,10.63
2019-03-06T07:04:51.157Z,10.90
2019-03-06T07:10:04.303Z,10.30
2019-03-06T07:15:20.288Z,10.13
2019-03-06T07:20:28.451Z,9.13
2019-03-06T07:25:48.743Z,9.40
2019-03-06T07:31:13.480Z,8.50
2019-03-06T07:36:35.149Z,8.47
2019-03-06T07:42:00.997Z,7.63
2019-03-06T07:47:16.168Z,8.23
2019-03-06T07:52:30.957Z,7.20
2019-03-06T07:57:48.202Z,7.73
2019-03-06T08:03:15.831Z,7.60
2019-03-06T08:08:17.921Z,7.20
2019-03-06T08:13:28.799Z,7.10
2019-03-06T08:18:43.553Z,7.20
2019-03-06T08:24:11.083Z,7.07
2019-03-06T08:29:13.646Z,5.87
2019-03-06T08:34:15.687Z,6.57
2019-03-06T08:39:19.729Z,6.40
2019-03-06T08:44:21.751Z,6.50
2019-03-06T08:49:36.403Z,6.57
2019-03-06T08:55:00.988Z,6.30
2019-03-06T09:00:35.306Z,5.40
2019-03-06T09:05:57.003Z,6.17
2019-03-06T09:11:06.782Z,5.80
2019-03-06T09:16:27.072Z,5.73
2019-03-06T09:21:43.743Z,5.83
2019-03-06T09:27:08.199Z,5.10
2019-03-06T09:32:28.535Z,5.33
2019-03-06T09:37:48.506Z,5.30
2019-03-06T09:42:57.343Z,5.17
2019-03-06T09:48:17.964Z,6.10
2019-03-06T09:53:57.931Z,6.10
2019-03-06T09:59:23.916Z,5.63
2019-03-06T10:05:03.551Z,5.50
2019-03-06T10:10:47.762Z,4.83
2019-03-06T10:15:55.068Z,4.63
2019-03-06T10:20:57.133Z,3.83
2019-03-06T10:25:59.265Z,4.00
2019-03-06T10:36:05.901Z,4.50
2019-03-06T10:41:07.960Z,4.00
2019-03-06T10:46:10.005Z,4.63
2019-03-06T10:51:12.341Z,3.77
2019-03-06T10:56:14.414Z,3.83
2019-03-06T11:01:16.850Z,3.87
2019-03-06T11:06:19.014Z,3.97
2019-03-06T11:11:21.149Z,4.37
2019-03-06T11:16:23.191Z,5.00
2019-03-06T11:21:25.574Z,4.60
2019-03-06T11:26:29.061Z,4.77
2019-03-06T11:31:32.124Z,4.43
2019-03-06T11:36:34.377Z,4.33
2019-03-06T11:41:37.209Z,4.33
2019-03-06T11:46:39.523Z,4.07
2019-03-06T11:51:41.600Z,3.70
2019-03-06T11:56:44.055Z,4.23
2019-03-06T12:01:48.245Z,3.73
2019-03-06T12:06:50.745Z,4.07
2019-03-06T12:11:53.154Z,3.93
2019-03-06T12:16:55.192Z,3.60
2019-03-06T12:21:57.335Z,3.40
2019-03-06T12:26:59.400Z,3.23
2019-03-06T12:32:01.651Z,3.20
2019-03-06T12:37:03.988Z,3.30
2019-03-06T12:42:13.964Z,3.00
2019-03-06T12:47:10.969Z,3.40
2019-03-06T12:52:13.148Z,3.10
2019-03-06T12:57:15.200Z,3.17
2019-03-06T13:02:17.249Z,3.37
2019-03-06T13:07:19.316Z,3.43
2019-03-06T13:12:21.556Z,2.80
2019-03-06T13:17:23.856Z,2.70
2019-03-06T13:22:25.851Z,2.20
2019-03-06T13:27:27.913Z,2.20
2019-03-06T13:32:42.136Z,2.00
2019-03-06T13:37:46.485Z,1.47
2019-03-06T13:42:55.559Z,1.40
2019-03-06T13:47:57.665Z,1.53
2019-03-06T13:53:00.123Z,1.60
2019-03-06T13:58:04.270Z,1.60
2019-03-06T14:03:09.318Z,1.80
2019-03-06T14:08:11.432Z,2.10
2019-03-06T14:13:13.491Z,2.23
2019-03-06T14:18:15.572Z,1.30
2019-03-06T14:23:17.655Z,1.50
2019-03-06T14:28:19.840Z,1.87
2019-03-06T14:33:23.998Z,1.87
2019-03-06T14:38:26.417Z,1.40
2019-03-06T14:43:28.597Z,1.73
2019-03-06T14:48:30.692Z,1.60
2019-03-06T14:53:32.715Z,1.37
2019-03-06T14:58:34.780Z,1.20
2019-03-06T15:03:37.224Z,1.30
2019-03-06T15:08:39.276Z,1.30
2019-03-06T15:13:41.346Z,1.50
2019-03-06T15:18:43.408Z,1.40
2019-03-06T15:23:45.450Z,1.43
2019-03-06T15:28:48.386Z,1.40
2019-03-06T15:33:52.417Z,1.63
2019-03-06T15:38:54.527Z,1.50
2019-03-06T15:44:04.196Z,1.33
2019-03-06T15:49:06.395Z,1.43
2019-03-06T15:54:09.101Z,1.57
2019-03-06T15:59:15.134Z,1.67
2019-03-06T16:04:19.140Z,1.40
2019-03-06T16:09:25.553Z,1.50
2019-03-06T16:14:48.580Z,1.40
2019-03-06T16:19:50.662Z,1.43
2019-03-06T16:24:52.707Z,1.60
2019-03-06T16:29:54.788Z,1.37
2019-03-06T16:34:56.850Z,1.37
2019-03-06T16:39:58.903Z,1.40
2019-03-06T16:45:00.953Z,1.30
2019-03-06T16:50:13.127Z,1.97
2019-03-06T16:55:09.403Z,1.73
2019-03-06T17:00:27.502Z,1.73
2019-03-06T17:05:30.522Z,1.33
2019-03-06T17:10:33.546Z,1.30
2019-03-06T17:15:35.854Z,1.40
2019-03-06T17:20:38.334Z,1.50
2019-03-06T17:25:40.363Z,1.70
2019-03-06T17:30:42.442Z,2.17
2019-03-06T17:35:48.747Z,1.50
2019-03-06T17:40:50.963Z,1.47
2019-03-06T17:45:52.973Z,1.67
2019-03-06T17:50:55.150Z,1.60
2019-03-06T17:55:57.241Z,1.83
2019-03-06T18:01:18.972Z,1.87
2019-03-06T18:06:21.041Z,1.70
2019-03-06T18:11:23.185Z,1.80
2019-03-06T18:16:25.488Z,1.93
2019-03-06T18:21:27.943Z,2.13
2019-03-06T18:26:30.002Z,1.60
2019-03-06T18:31:32.224Z,1.60
2019-03-06T18:36:34.403Z,1.50
2019-03-06T18:41:38.392Z,1.50
2019-03-06T18:46:40.438Z,1.77
2019-03-06T18:51:42.760Z,1.50
2019-03-06T18:56:44.798Z,2.30
2019-03-06T19:01:56.151Z,1.80
2019-03-06T19:06:59.312Z,2.30
2019-03-06T19:12:01.662Z,2.00
2019-03-06T19:17:03.800Z,1.90
2019-03-06T19:22:18.586Z,2.03
2019-03-06T19:27:20.077Z,2.30
2019-03-06T19:32:26.973Z,2.10
2019-03-06T19:37:29.301Z,2.00
2019-03-06T19:42:40.308Z,2.00
2019-03-06T19:47:42.411Z,2.50
2019-03-06T19:52:44.740Z,2.13
2019-03-06T19:57:59.856Z,2.10
2019-03-06T20:03:02.227Z,2.17
2019-03-06T20:08:07.460Z,2.30
2019-03-06T20:13:12.545Z,2.47
2019-03-06T20:18:14.677Z,3.07
2019-03-06T20:23:18.093Z,3.00
2019-03-06T20:28:20.144Z,2.40
2019-03-06T20:33:22.206Z,2.40
2019-03-06T20:38:24.288Z,2.43
2019-03-06T20:43:26.376Z,2.50
2019-03-06T20:48:28.848Z,2.63
2019-03-06T20:53:31.013Z,2.57
2019-03-06T20:58:33.129Z,2.70
2019-03-06T21:03:35.313Z,2.30
2019-03-06T21:08:37.375Z,2.27
2019-03-06T21:13:39.482Z,1.90
2019-03-06T21:18:41.529Z,2.47
2019-03-06T21:23:43.598Z,2.40
2019-03-06T21:28:46.201Z,1.87
2019-03-06T21:33:48.218Z,2.20
2019-03-06T21:38:50.256Z,2.20
2019-03-06T21:43:52.319Z,2.03
2019-03-06T21:48:54.381Z,2.20
2019-03-06T21:53:56.426Z,2.53
2019-03-06T21:58:58.784Z,2.40
2019-03-06T22:04:02.981Z,2.23
2019-03-06T22:09:11.084Z,2.67
2019-03-06T22:14:13.441Z,2.23
2019-03-06T22:19:15.514Z,2.10
2019-03-06T22:24:17.586Z,2.27
2019-03-06T22:29:19.645Z,2.33
2019-03-06T22:34:21.815Z,2.20
2019-03-06T22:39:24.330Z,2.40
2019-03-06T22:44:26.409Z,2.23
2019-03-06T22:49:28.446Z,2.13
2019-03-06T22:54:30.543Z,1.83
2019-03-06T22:59:32.574Z,2.20
2019-03-06T23:04:35.087Z,2.20
2019-03-06T23:09:37.024Z,2.20
2019-03-06T23:14:39.144Z,2.20
2019-03-06T23:19:41.212Z,2.00
2019-03-06T23:24:43.325Z,2.30
2019-03-06T23:29:45.370Z,2.20
2019-03-06T23:34:47.458Z,2.10
2019-03-06T23:39:49.473Z,2.27
2019-03-06T23:44:51.523Z,1.90
2019-03-06T23:49:53.605Z,3.13
2019-03-06T23:54:55.936Z,1.90
2019-03-06T23:59:57.985Z,1.80
